sensor_id;sensor_type;location;lat;lon;timestamp;pressure;altitude;pressure_sealevel;temperature;humidity
7774;BME280;3931;42.260;23.116;2022-12-24T00:02:10;95381.63;;;7.32;100.00
7774;BME280;3931;42.260;23.116;2022-12-24T00:04:36;95401.66;;;7.32;100.00
7774;BME280;3931;42.260;23.116;2022-12-24T00:07:02;95410.47;;;7.47;100.00
7774;BME280;3931;42.260;23.116;2022-12-24T00:09:28;95396.28;;;7.25;100.00
7774;BME280;3931;42.260;23.116;2022-12-24T00:11:54;95401.78;;;7.25;100.00
7774;BME280;3931;42.260;23.116;2022-12-24T00:14:20;95401.47;;;7.20;100.00
7774;BME280;3931;42.260;23.116;2022-12-24T00:16:46;95393.22;;;7.20;100.00
7774;BME280;3931;42.260;23.116;2022-12-24T00:19:13;95416.13;;;7.36;100.00
7774;BME280;3931;42.260;23.116;2022-12-24T00:21:39;95419.66;;;7.37;99.26
7774;BME280;3931;42.260;23.116;2022-12-24T00:24:05;95424.81;;;7.12;98.37
7774;BME280;3931;42.260;23.116;2022-12-24T00:26:32;95419.31;;;7.12;98.78
7774;BME280;3931;42.260;23.116;2022-12-24T00:28:58;95423.66;;;7.09;98.76
7774;BME280;3931;42.260;23.116;2022-12-24T00:31:24;95425.56;;;7.12;99.18
7774;BME280;3931;42.260;23.116;2022-12-24T00:33:50;95418.41;;;6.92;99.25
7774;BME280;3931;42.260;23.116;2022-12-24T00:36:18;95399.00;;;6.45;100.00
7774;BME280;3931;42.260;23.116;2022-12-24T00:38:44;95356.34;;;6.64;100.00
7774;BME280;3931;42.260;23.116;2022-12-24T00:41:12;95358.38;;;6.87;100.00
7774;BME280;3931;42.260;23.116;2022-12-24T00:43:49;95385.41;;;7.18;100.00
7774;BME280;3931;42.260;23.116;2022-12-24T00:46:15;95403.66;;;7.05;100.00
7774;BME280;3931;42.260;23.116;2022-12-24T00:48:41;95411.22;;;7.24;99.31
7774;BME280;3931;42.260;23.116;2022-12-24T00:51:07;95418.66;;;7.27;97.63
7774;BME280;3931;42.260;23.116;2022-12-24T00:53:34;95414.66;;;7.05;98.47
7774;BME280;3931;42.260;23.116;2022-12-24T00:56:00;95402.75;;;6.89;100.00
7774;BME280;3931;42.260;23.116;2022-12-24T00:58:26;95405.06;;;7.17;99.58
7774;BME280;3931;42.260;23.116;2022-12-24T01:00:52;95406.28;;;7.16;99.52
7774;BME280;3931;42.260;23.116;2022-12-24T01:03:18;95406.28;;;7.16;98.93
7774;BME280;3931;42.260;23.116;2022-12-24T01:05:44;95403.81;;;7.21;98.96
7774;BME280;3931;42.260;23.116;2022-12-24T01:08:10;95397.66;;;7.14;98.15
7774;BME280;3931;42.260;23.116;2022-12-24T01:10:37;95393.34;;;7.13;99.47
7774;BME280;3931;42.260;23.116;2022-12-24T01:13:03;95405.41;;;7.19;97.24
7774;BME280;3931;42.260;23.116;2022-12-24T01:15:29;95397.41;;;7.05;99.36
7774;BME280;3931;42.260;23.116;2022-12-24T01:17:55;95388.66;;;6.83;100.00
7774;BME280;3931;42.260;23.116;2022-12-24T01:20:22;95387.38;;;6.91;100.00
7774;BME280;3931;42.260;23.116;2022-12-24T01:22:51;95407.16;;;7.09;97.69
7774;BME280;3931;42.260;23.116;2022-12-24T01:25:17;95401.13;;;6.91;98.22
7774;BME280;3931;42.260;23.116;2022-12-24T01:27:44;95396.19;;;6.79;100.00
7774;BME280;3931;42.260;23.116;2022-12-24T01:30:12;95381.09;;;6.64;100.00
7774;BME280;3931;42.260;23.116;2022-12-24T01:32:39;95388.09;;;6.95;100.00
7774;BME280;3931;42.260;23.116;2022-12-24T01:35:06;95402.94;;;7.01;99.20
7774;BME280;3931;42.260;23.116;2022-12-24T01:37:32;95408.66;;;7.14;97.33
7774;BME280;3931;42.260;23.116;2022-12-24T01:39:58;95415.41;;;7.09;97.19
7774;BME280;3931;42.260;23.116;2022-12-24T01:42:43;95411.41;;;6.57;100.00
7774;BME280;3931;42.260;23.116;2022-12-24T01:45:47;95400.78;;;6.59;100.00
7774;BME280;3931;42.260;23.116;2022-12-24T01:48:16;95401.22;;;6.57;100.00
7774;BME280;3931;42.260;23.116;2022-12-24T01:50:44;95413.78;;;6.85;100.00
7774;BME280;3931;42.260;23.116;2022-12-24T01:53:13;95413.41;;;6.83;99.79
7774;BME280;3931;42.260;23.116;2022-12-24T01:55:40;95423.59;;;6.86;99.40
7774;BME280;3931;42.260;23.116;2022-12-24T01:58:07;95412.97;;;6.28;100.00
7774;BME280;3931;42.260;23.116;2022-12-24T02:00:34;95367.47;;;5.93;100.00
7774;BME280;3931;42.260;23.116;2022-12-24T02:03:01;95348.91;;;6.04;100.00
7774;BME280;3931;42.260;23.116;2022-12-24T02:05:29;95346.03;;;6.15;100.00
7774;BME280;3931;42.260;23.116;2022-12-24T02:07:57;95338.97;;;6.44;100.00
7774;BME280;3931;42.260;23.116;2022-12-24T02:10:24;95364.88;;;6.43;100.00
7774;BME280;3931;42.260;23.116;2022-12-24T02:12:50;95375.22;;;6.32;100.00
7774;BME280;3931;42.260;23.116;2022-12-24T02:15:18;95355.69;;;6.26;100.00
7774;BME280;3931;42.260;23.116;2022-12-24T02:17:50;95365.25;;;6.15;100.00
7774;BME280;3931;42.260;23.116;2022-12-24T02:23:51;95344.44;;;6.17;100.00
7774;BME280;3931;42.260;23.116;2022-12-24T02:26:33;95364.75;;;6.23;100.00
7774;BME280;3931;42.260;23.116;2022-12-24T02:29:20;95364.59;;;6.04;100.00
7774;BME280;3931;42.260;23.116;2022-12-24T02:31:56;95361.03;;;6.07;100.00
7774;BME280;3931;42.260;23.116;2022-12-24T02:34:29;95368.28;;;6.24;100.00
7774;BME280;3931;42.260;23.116;2022-12-24T02:37:00;95389.88;;;6.22;100.00
7774;BME280;3931;42.260;23.116;2022-12-24T02:39:34;95395.38;;;6.22;100.00
7774;BME280;3931;42.260;23.116;2022-12-24T02:42:05;95413.38;;;6.56;99.38
7774;BME280;3931;42.260;23.116;2022-12-24T02:44:37;95432.06;;;6.69;95.75
7774;BME280;3931;42.260;23.116;2022-12-24T02:47:05;95425.22;;;6.53;94.89
7774;BME280;3931;42.260;23.116;2022-12-24T02:49:31;95425.34;;;6.09;97.65
7774;BME280;3931;42.260;23.116;2022-12-24T02:51:58;95420.53;;;6.17;98.21
7774;BME280;3931;42.260;23.116;2022-12-24T02:54:24;95401.31;;;6.17;100.00
7774;BME280;3931;42.260;23.116;2022-12-24T02:57:01;95393.34;;;5.51;100.00
7774;BME280;3931;42.260;23.116;2022-12-24T02:59:40;95377.06;;;5.34;100.00
7774;BME280;3931;42.260;23.116;2022-12-24T03:02:22;95355.34;;;5.50;100.00
7774;BME280;3931;42.260;23.116;2022-12-24T03:04:55;95363.63;;;5.83;100.00
7774;BME280;3931;42.260;23.116;2022-12-24T03:07:25;95354.69;;;5.76;100.00
7774;BME280;3931;42.260;23.116;2022-12-24T03:10:02;95367.22;;;6.14;100.00
7774;BME280;3931;42.260;23.116;2022-12-24T03:12:35;95375.38;;;6.21;99.42
7774;BME280;3931;42.260;23.116;2022-12-24T03:15:04;95391.97;;;6.11;97.59
7774;BME280;3931;42.260;23.116;2022-12-24T03:17:34;95393.78;;;5.91;97.80
7774;BME280;3931;42.260;23.116;2022-12-24T03:20:02;95402.41;;;6.26;96.28
7774;BME280;3931;42.260;23.116;2022-12-24T03:22:30;95398.25;;;6.11;96.78
7774;BME280;3931;42.260;23.116;2022-12-24T03:24:57;95396.16;;;6.22;95.20
7774;BME280;3931;42.260;23.116;2022-12-24T03:27:24;95393.44;;;6.19;95.40
7774;BME280;3931;42.260;23.116;2022-12-24T03:29:51;95377.91;;;6.05;96.20
7774;BME280;3931;42.260;23.116;2022-12-24T03:32:22;95377.69;;;6.23;96.66
7774;BME280;3931;42.260;23.116;2022-12-24T03:34:49;95369.78;;;5.98;99.22
7774;BME280;3931;42.260;23.116;2022-12-24T03:37:15;95328.00;;;5.80;100.00
7774;BME280;3931;42.260;23.116;2022-12-24T03:39:41;95297.47;;;5.74;100.00
7774;BME280;3931;42.260;23.116;2022-12-24T03:42:07;95290.03;;;5.75;100.00
7774;BME280;3931;42.260;23.116;2022-12-24T03:44:33;95274.94;;;5.56;100.00
7774;BME280;3931;42.260;23.116;2022-12-24T03:46:59;95280.22;;;5.40;100.00
7774;BME280;3931;42.260;23.116;2022-12-24T03:49:26;95297.97;;;6.00;100.00
7774;BME280;3931;42.260;23.116;2022-12-24T03:51:55;95302.34;;;5.60;100.00
7774;BME280;3931;42.260;23.116;2022-12-24T03:54:21;95299.06;;;5.72;100.00
7774;BME280;3931;42.260;23.116;2022-12-24T03:56:47;95306.44;;;5.78;100.00
7774;BME280;3931;42.260;23.116;2022-12-24T03:59:13;95310.63;;;5.90;100.00
7774;BME280;3931;42.260;23.116;2022-12-24T04:01:39;95315.47;;;6.13;100.00
7774;BME280;3931;42.260;23.116;2022-12-24T04:04:05;95349.13;;;6.17;100.00
7774;BME280;3931;42.260;23.116;2022-12-24T04:06:31;95361.97;;;6.27;99.64
7774;BME280;3931;42.260;23.116;2022-12-24T04:08:58;95377.31;;;6.24;97.98
7774;BME280;3931;42.260;23.116;2022-12-24T04:11:26;95378.63;;;6.13;97.23
7774;BME280;3931;42.260;23.116;2022-12-24T04:13:52;95384.25;;;6.02;97.39
7774;BME280;3931;42.260;23.116;2022-12-24T04:16:18;95367.91;;;5.88;100.00
7774;BME280;3931;42.260;23.116;2022-12-24T04:18:44;95346.00;;;5.81;100.00
7774;BME280;3931;42.260;23.116;2022-12-24T04:21:10;95356.53;;;5.89;100.00
7774;BME280;3931;42.260;23.116;2022-12-24T04:23:38;95357.47;;;6.10;100.00
7774;BME280;3931;42.260;23.116;2022-12-24T04:26:06;95377.97;;;6.02;100.00
7774;BME280;3931;42.260;23.116;2022-12-24T04:28:33;95397.78;;;6.16;99.46
7774;BME280;3931;42.260;23.116;2022-12-24T04:31:01;95397.72;;;6.23;98.77
7774;BME280;3931;42.260;23.116;2022-12-24T04:33:27;95415.78;;;6.21;97.55
7774;BME280;3931;42.260;23.116;2022-12-24T04:35:53;95412.75;;;6.12;98.58
7774;BME280;3931;42.260;23.116;2022-12-24T04:38:19;95431.91;;;6.19;98.14
7774;BME280;3931;42.260;23.116;2022-12-24T04:40:45;95464.03;;;6.22;97.18
7774;BME280;3931;42.260;23.116;2022-12-24T04:43:12;95452.28;;;5.84;99.00
7774;BME280;3931;42.260;23.116;2022-12-24T04:45:38;95436.78;;;6.04;100.00
7774;BME280;3931;42.260;23.116;2022-12-24T04:48:04;95447.56;;;6.22;97.81
7774;BME280;3931;42.260;23.116;2022-12-24T04:50:30;95453.84;;;6.22;97.09
7774;BME280;3931;42.260;23.116;2022-12-24T04:52:57;95460.59;;;6.14;96.64
7774;BME280;3931;42.260;23.116;2022-12-24T04:55:23;95449.31;;;5.64;100.00
7774;BME280;3931;42.260;23.116;2022-12-24T04:57:49;95446.09;;;5.73;100.00
7774;BME280;3931;42.260;23.116;2022-12-24T05:00:16;95425.63;;;5.37;100.00
7774;BME280;3931;42.260;23.116;2022-12-24T05:02:42;95390.53;;;5.14;100.00
7774;BME280;3931;42.260;23.116;2022-12-24T05:05:08;95355.59;;;5.25;100.00
7774;BME280;3931;42.260;23.116;2022-12-24T05:07:34;95340.56;;;5.40;100.00
7774;BME280;3931;42.260;23.116;2022-12-24T05:10:00;95364.13;;;5.75;100.00
7774;BME280;3931;42.260;23.116;2022-12-24T05:12:26;95367.00;;;5.61;100.00
7774;BME280;3931;42.260;23.116;2022-12-24T05:14:53;95371.19;;;5.72;100.00
7774;BME280;3931;42.260;23.116;2022-12-24T05:17:19;95364.06;;;5.78;100.00
7774;BME280;3931;42.260;23.116;2022-12-24T05:19:45;95359.88;;;5.67;100.00
7774;BME280;3931;42.260;23.116;2022-12-24T05:22:11;95323.31;;;5.77;100.00
7774;BME280;3931;42.260;23.116;2022-12-24T05:24:55;95299.38;;;5.44;100.00
7774;BME280;3931;42.260;23.116;2022-12-24T05:27:39;95270.88;;;4.93;100.00
7774;BME280;3931;42.260;23.116;2022-12-24T05:30:06;95252.78;;;5.03;100.00
7774;BME280;3931;42.260;23.116;2022-12-24T05:32:33;95224.66;;;4.55;100.00
7774;BME280;3931;42.260;23.116;2022-12-24T05:34:59;95193.88;;;4.40;100.00
7774;BME280;3931;42.260;23.116;2022-12-24T05:37:25;95174.00;;;4.32;100.00
7774;BME280;3931;42.260;23.116;2022-12-24T05:39:51;95148.31;;;4.19;100.00
7774;BME280;3931;42.260;23.116;2022-12-24T05:42:17;95122.34;;;4.34;100.00
7774;BME280;3931;42.260;23.116;2022-12-24T05:44:43;95146.31;;;4.64;100.00
7774;BME280;3931;42.260;23.116;2022-12-24T05:47:09;95180.31;;;4.70;100.00
7774;BME280;3931;42.260;23.116;2022-12-24T05:49:36;95205.34;;;4.69;100.00
7774;BME280;3931;42.260;23.116;2022-12-24T05:52:02;95199.06;;;4.72;100.00
7774;BME280;3931;42.260;23.116;2022-12-24T05:54:29;95222.75;;;5.30;100.00
7774;BME280;3931;42.260;23.116;2022-12-24T05:56:55;95268.63;;;5.26;100.00
7774;BME280;3931;42.260;23.116;2022-12-24T05:59:21;95273.03;;;5.53;100.00
7774;BME280;3931;42.260;23.116;2022-12-24T06:01:47;95300.91;;;5.82;100.00
7774;BME280;3931;42.260;23.116;2022-12-24T06:04:13;95329.78;;;5.60;100.00
7774;BME280;3931;42.260;23.116;2022-12-24T06:06:40;95344.28;;;5.98;100.00
7774;BME280;3931;42.260;23.116;2022-12-24T06:09:06;95359.25;;;5.93;100.00
7774;BME280;3931;42.260;23.116;2022-12-24T06:11:32;95371.28;;;6.03;100.00
7774;BME280;3931;42.260;23.116;2022-12-24T06:13:58;95363.22;;;5.88;100.00
7774;BME280;3931;42.260;23.116;2022-12-24T06:16:24;95369.13;;;5.83;100.00
7774;BME280;3931;42.260;23.116;2022-12-24T06:18:51;95380.91;;;6.18;100.00
7774;BME280;3931;42.260;23.116;2022-12-24T06:21:17;95410.75;;;6.16;100.00
7774;BME280;3931;42.260;23.116;2022-12-24T06:23:45;95417.00;;;6.20;100.00
7774;BME280;3931;42.260;23.116;2022-12-24T06:26:13;95418.25;;;6.12;100.00
7774;BME280;3931;42.260;23.116;2022-12-24T06:28:39;95407.47;;;5.94;100.00
7774;BME280;3931;42.260;23.116;2022-12-24T06:31:08;95396.66;;;6.14;100.00
7774;BME280;3931;42.260;23.116;2022-12-24T06:33:35;95393.06;;;6.20;100.00
7774;BME280;3931;42.260;23.116;2022-12-24T06:36:05;95393.50;;;6.15;100.00
7774;BME280;3931;42.260;23.116;2022-12-24T06:38:31;95394.56;;;6.25;100.00
7774;BME280;3931;42.260;23.116;2022-12-24T06:40:58;95385.56;;;6.21;100.00
7774;BME280;3931;42.260;23.116;2022-12-24T06:43:24;95379.94;;;6.01;100.00
7774;BME280;3931;42.260;23.116;2022-12-24T06:45:50;95363.91;;;5.96;100.00
7774;BME280;3931;42.260;23.116;2022-12-24T06:48:16;95362.88;;;6.17;100.00
7774;BME280;3931;42.260;23.116;2022-12-24T06:50:42;95381.75;;;6.45;100.00
7774;BME280;3931;42.260;23.116;2022-12-24T06:53:09;95403.03;;;6.68;100.00
7774;BME280;3931;42.260;23.116;2022-12-24T06:55:35;95399.41;;;6.14;100.00
7774;BME280;3931;42.260;23.116;2022-12-24T06:58:02;95384.25;;;6.63;100.00
7774;BME280;3931;42.260;23.116;2022-12-24T07:00:28;95405.31;;;6.99;100.00
7774;BME280;3931;42.260;23.116;2022-12-24T07:02:54;95431.03;;;7.39;100.00
7774;BME280;3931;42.260;23.116;2022-12-24T07:05:20;95442.00;;;7.43;99.60
7774;BME280;3931;42.260;23.116;2022-12-24T07:07:46;95446.63;;;7.49;99.20
7774;BME280;3931;42.260;23.116;2022-12-24T07:10:14;95447.50;;;7.89;97.92
7774;BME280;3931;42.260;23.116;2022-12-24T07:12:41;95461.59;;;7.94;96.54
7774;BME280;3931;42.260;23.116;2022-12-24T07:15:09;95453.63;;;7.77;97.81
7774;BME280;3931;42.260;23.116;2022-12-24T07:17:35;95476.94;;;8.15;93.56
7774;BME280;3931;42.260;23.116;2022-12-24T07:20:02;95489.72;;;8.29;91.34
7774;BME280;3931;42.260;23.116;2022-12-24T07:22:28;95513.19;;;9.15;84.78
7774;BME280;3931;42.260;23.116;2022-12-24T07:24:54;95538.88;;;9.32;78.97
7774;BME280;3931;42.260;23.116;2022-12-24T07:27:20;95532.53;;;9.35;77.36
7774;BME280;3931;42.260;23.116;2022-12-24T07:29:46;95533.91;;;8.68;80.65
7774;BME280;3931;42.260;23.116;2022-12-24T07:32:13;95526.19;;;8.79;83.56
7774;BME280;3931;42.260;23.116;2022-12-24T07:34:39;95527.50;;;8.91;84.44
7774;BME280;3931;42.260;23.116;2022-12-24T07:37:06;95523.28;;;9.06;84.97
7774;BME280;3931;42.260;23.116;2022-12-24T07:39:32;95520.72;;;9.50;82.56
7774;BME280;3931;42.260;23.116;2022-12-24T07:41:58;95529.91;;;10.89;76.90
7774;BME280;3931;42.260;23.116;2022-12-24T07:44:24;95527.28;;;12.74;66.23
7774;BME280;3931;42.260;23.116;2022-12-24T07:46:50;95535.28;;;12.13;62.08
7774;BME280;3931;42.260;23.116;2022-12-24T07:49:17;95533.25;;;12.38;61.52
7774;BME280;3931;42.260;23.116;2022-12-24T07:51:43;95528.38;;;11.42;64.36
7774;BME280;3931;42.260;23.116;2022-12-24T07:54:09;95526.84;;;10.71;67.55
7774;BME280;3931;42.260;23.116;2022-12-24T07:56:35;95536.22;;;10.45;70.07
7774;BME280;3931;42.260;23.116;2022-12-24T07:59:01;95535.19;;;9.90;74.80
7774;BME280;3931;42.260;23.116;2022-12-24T08:01:27;95534.00;;;9.39;77.98
7774;BME280;3931;42.260;23.116;2022-12-24T08:03:53;95535.84;;;9.26;81.61
7774;BME280;3931;42.260;23.116;2022-12-24T08:06:20;95539.34;;;8.91;85.19
7774;BME280;3931;42.260;23.116;2022-12-24T08:08:47;95539.69;;;8.93;85.44
7774;BME280;3931;42.260;23.116;2022-12-24T08:11:13;95527.72;;;9.00;87.29
7774;BME280;3931;42.260;23.116;2022-12-24T08:13:39;95513.59;;;8.78;90.49
7774;BME280;3931;42.260;23.116;2022-12-24T08:16:06;95500.94;;;8.80;92.85
7774;BME280;3931;42.260;23.116;2022-12-24T08:18:32;95488.19;;;8.87;93.90
7774;BME280;3931;42.260;23.116;2022-12-24T08:20:58;95489.06;;;8.84;95.98
7774;BME280;3931;42.260;23.116;2022-12-24T08:23:25;95479.78;;;8.74;96.34
7774;BME280;3931;42.260;23.116;2022-12-24T08:25:51;95478.16;;;8.76;95.72
7774;BME280;3931;42.260;23.116;2022-12-24T08:28:19;95485.78;;;8.69;95.33
7774;BME280;3931;42.260;23.116;2022-12-24T08:30:47;95474.19;;;8.77;95.13
7774;BME280;3931;42.260;23.116;2022-12-24T08:33:13;95446.19;;;8.59;97.08
7774;BME280;3931;42.260;23.116;2022-12-24T08:35:39;95434.03;;;8.37;98.65
7774;BME280;3931;42.260;23.116;2022-12-24T08:38:05;95419.44;;;8.17;100.00
7774;BME280;3931;42.260;23.116;2022-12-24T08:40:32;95410.25;;;8.24;100.00
7774;BME280;3931;42.260;23.116;2022-12-24T08:43:00;95387.75;;;8.29;100.00
7774;BME280;3931;42.260;23.116;2022-12-24T08:45:26;95386.00;;;8.38;100.00
7774;BME280;3931;42.260;23.116;2022-12-24T08:47:52;95404.59;;;8.90;100.00
7774;BME280;3931;42.260;23.116;2022-12-24T08:50:18;95393.50;;;8.73;100.00
7774;BME280;3931;42.260;23.116;2022-12-24T08:52:44;95407.44;;;8.66;100.00
7774;BME280;3931;42.260;23.116;2022-12-24T08:55:10;95431.34;;;8.93;99.32
7774;BME280;3931;42.260;23.116;2022-12-24T08:57:37;95435.38;;;9.24;98.85
7774;BME280;3931;42.260;23.116;2022-12-24T09:00:04;95464.03;;;9.46;93.56
7774;BME280;3931;42.260;23.116;2022-12-24T09:02:31;95458.09;;;9.80;91.82
7774;BME280;3931;42.260;23.116;2022-12-24T09:04:57;95468.53;;;9.72;90.30
7774;BME280;3931;42.260;23.116;2022-12-24T09:07:23;95459.69;;;9.93;88.58
7774;BME280;3931;42.260;23.116;2022-12-24T09:09:49;95464.81;;;9.79;88.20
7774;BME280;3931;42.260;23.116;2022-12-24T09:12:15;95455.06;;;9.58;91.26
7774;BME280;3931;42.260;23.116;2022-12-24T09:14:42;95447.13;;;9.44;95.60
7774;BME280;3931;42.260;23.116;2022-12-24T09:17:08;95445.38;;;9.98;93.39
7774;BME280;3931;42.260;23.116;2022-12-24T09:19:34;95451.69;;;9.34;94.77
7774;BME280;3931;42.260;23.116;2022-12-24T09:22:00;95420.63;;;9.46;98.23
7774;BME280;3931;42.260;23.116;2022-12-24T09:24:26;95418.97;;;9.81;97.59
7774;BME280;3931;42.260;23.116;2022-12-24T09:26:52;95437.81;;;9.86;95.91
7774;BME280;3931;42.260;23.116;2022-12-24T09:29:18;95445.22;;;9.73;95.68
7774;BME280;3931;42.260;23.116;2022-12-24T09:31:45;95431.75;;;9.59;99.42
7774;BME280;3931;42.260;23.116;2022-12-24T09:34:11;95391.03;;;9.15;100.00
7774;BME280;3931;42.260;23.116;2022-12-24T09:36:37;95372.03;;;9.33;100.00
7774;BME280;3931;42.260;23.116;2022-12-24T09:39:03;95388.09;;;9.54;100.00
7774;BME280;3931;42.260;23.116;2022-12-24T09:41:41;95389.81;;;9.48;100.00
7774;BME280;3931;42.260;23.116;2022-12-24T09:44:21;95343.56;;;9.36;100.00
7774;BME280;3931;42.260;23.116;2022-12-24T09:46:50;95367.06;;;9.89;100.00
7774;BME280;3931;42.260;23.116;2022-12-24T09:49:20;95391.81;;;10.08;100.00
7774;BME280;3931;42.260;23.116;2022-12-24T09:51:50;95425.22;;;10.30;98.39
7774;BME280;3931;42.260;23.116;2022-12-24T09:54:22;95401.31;;;10.07;100.00
7774;BME280;3931;42.260;23.116;2022-12-24T09:56:50;95390.53;;;10.42;100.00
7774;BME280;3931;42.260;23.116;2022-12-24T09:59:20;95416.56;;;10.57;96.42
7774;BME280;3931;42.260;23.116;2022-12-24T10:01:48;95449.69;;;11.52;90.65
7774;BME280;3931;42.260;23.116;2022-12-24T10:04:18;95468.09;;;11.46;87.47
7774;BME280;3931;42.260;23.116;2022-12-24T10:06:49;95470.41;;;11.47;86.78
7774;BME280;3931;42.260;23.116;2022-12-24T10:09:25;95461.88;;;12.05;84.53
7774;BME280;3931;42.260;23.116;2022-12-24T10:11:59;95476.31;;;13.64;72.35
7774;BME280;3931;42.260;23.116;2022-12-24T10:14:39;95485.03;;;13.44;72.02
7774;BME280;3931;42.260;23.116;2022-12-24T10:17:25;95477.09;;;13.64;70.73
7774;BME280;3931;42.260;23.116;2022-12-24T10:20:00;95493.31;;;14.64;66.76
7774;BME280;3931;42.260;23.116;2022-12-24T10:22:36;95494.84;;;15.28;62.52
7774;BME280;3931;42.260;23.116;2022-12-24T10:25:10;95489.59;;;14.67;61.96
7774;BME280;3931;42.260;23.116;2022-12-24T10:27:38;95472.97;;;15.54;61.65
7774;BME280;3931;42.260;23.116;2022-12-24T10:30:11;95479.19;;;14.40;62.92
7774;BME280;3931;42.260;23.116;2022-12-24T10:32:38;95471.72;;;13.39;68.44
7774;BME280;3931;42.260;23.116;2022-12-24T10:35:18;95468.41;;;13.01;71.86
7774;BME280;3931;42.260;23.116;2022-12-24T10:37:47;95446.16;;;12.36;76.71
7774;BME280;3931;42.260;23.116;2022-12-24T10:40:18;95444.75;;;13.18;75.58
7774;BME280;3931;42.260;23.116;2022-12-24T10:42:48;95452.63;;;13.20;71.99
7774;BME280;3931;42.260;23.116;2022-12-24T10:45:16;95446.13;;;12.92;74.45
7774;BME280;3931;42.260;23.116;2022-12-24T10:47:48;95438.69;;;12.89;74.39
7774;BME280;3931;42.260;23.116;2022-12-24T10:50:20;95432.44;;;12.54;77.71
7774;BME280;3931;42.260;23.116;2022-12-24T10:52:48;95429.25;;;12.43;77.72
7774;BME280;3931;42.260;23.116;2022-12-24T10:55:22;95403.25;;;11.94;84.61
7774;BME280;3931;42.260;23.116;2022-12-24T10:57:58;95406.47;;;12.26;83.48
7774;BME280;3931;42.260;23.116;2022-12-24T11:00:26;95398.81;;;11.84;85.24
7774;BME280;3931;42.260;23.116;2022-12-24T11:03:07;95387.31;;;11.60;88.05
7774;BME280;3931;42.260;23.116;2022-12-24T11:05:35;95404.66;;;12.32;83.33
7774;BME280;3931;42.260;23.116;2022-12-24T11:08:02;95397.28;;;11.83;85.15
7774;BME280;3931;42.260;23.116;2022-12-24T11:10:29;95399.72;;;12.15;83.95
7774;BME280;3931;42.260;23.116;2022-12-24T11:12:55;95411.59;;;12.50;81.46
7774;BME280;3931;42.260;23.116;2022-12-24T11:15:23;95411.75;;;12.33;80.81
7774;BME280;3931;42.260;23.116;2022-12-24T11:17:52;95403.56;;;12.73;80.98
7774;BME280;3931;42.260;23.116;2022-12-24T11:20:25;95414.16;;;12.87;78.71
7774;BME280;3931;42.260;23.116;2022-12-24T11:22:52;95420.63;;;12.63;79.20
7774;BME280;3931;42.260;23.116;2022-12-24T11:25:20;95406.09;;;12.59;78.78
7774;BME280;3931;42.260;23.116;2022-12-24T11:27:48;95406.44;;;12.61;79.41
7774;BME280;3931;42.260;23.116;2022-12-24T11:30:28;95410.22;;;12.54;80.34
7774;BME280;3931;42.260;23.116;2022-12-24T11:33:15;95400.28;;;12.66;79.96
7774;BME280;3931;42.260;23.116;2022-12-24T11:35:45;95400.88;;;12.61;78.87
7774;BME280;3931;42.260;23.116;2022-12-24T11:38:18;95415.03;;;13.28;76.11
7774;BME280;3931;42.260;23.116;2022-12-24T11:40:47;95401.34;;;13.42;74.50
7774;BME280;3931;42.260;23.116;2022-12-24T11:43:15;95401.47;;;13.78;72.47
7774;BME280;3931;42.260;23.116;2022-12-24T11:45:47;95401.69;;;14.20;70.30
7774;BME280;3931;42.260;23.116;2022-12-24T11:48:24;95415.88;;;13.95;68.98
7774;BME280;3931;42.260;23.116;2022-12-24T11:50:56;95414.69;;;14.23;66.62
7774;BME280;3931;42.260;23.116;2022-12-24T11:53:25;95405.81;;;13.40;70.07
7774;BME280;3931;42.260;23.116;2022-12-24T11:55:55;95401.72;;;13.62;70.19
7774;BME280;3931;42.260;23.116;2022-12-24T11:58:25;95383.63;;;13.49;72.55
7774;BME280;3931;42.260;23.116;2022-12-24T12:01:01;95375.81;;;13.04;73.42
7774;BME280;3931;42.260;23.116;2022-12-24T12:03:31;95364.31;;;13.05;75.52
7774;BME280;3931;42.260;23.116;2022-12-24T12:06:03;95367.97;;;13.02;74.90
7774;BME280;3931;42.260;23.116;2022-12-24T12:08:32;95376.38;;;13.11;76.01
7774;BME280;3931;42.260;23.116;2022-12-24T12:10:59;95373.28;;;13.49;73.61
7774;BME280;3931;42.260;23.116;2022-12-24T12:13:30;95390.69;;;13.41;72.35
7774;BME280;3931;42.260;23.116;2022-12-24T12:16:06;95397.84;;;13.20;73.72
7774;BME280;3931;42.260;23.116;2022-12-24T12:18:37;95407.34;;;13.80;71.72
7774;BME280;3931;42.260;23.116;2022-12-24T12:21:06;95402.28;;;14.06;69.99
7774;BME280;3931;42.260;23.116;2022-12-24T12:23:39;95415.44;;;13.97;70.02
7774;BME280;3931;42.260;23.116;2022-12-24T12:26:11;95412.03;;;14.20;69.31
7774;BME280;3931;42.260;23.116;2022-12-24T12:28:43;95419.00;;;14.24;68.48
7774;BME280;3931;42.260;23.116;2022-12-24T12:31:12;95421.75;;;14.06;67.96
7774;BME280;3931;42.260;23.116;2022-12-24T12:33:44;95424.22;;;13.95;68.64
7774;BME280;3931;42.260;23.116;2022-12-24T12:36:13;95419.66;;;14.19;68.22
7774;BME280;3931;42.260;23.116;2022-12-24T12:38:41;95428.28;;;14.12;68.59
7774;BME280;3931;42.260;23.116;2022-12-24T12:41:17;95422.00;;;14.39;67.24
7774;BME280;3931;42.260;23.116;2022-12-24T12:46:46;95438.69;;;14.39;66.94
7774;BME280;3931;42.260;23.116;2022-12-24T12:49:29;95433.13;;;14.30;68.36
7774;BME280;3931;42.260;23.116;2022-12-24T12:52:04;95434.84;;;14.45;68.18
7774;BME280;3931;42.260;23.116;2022-12-24T12:54:43;95432.19;;;14.42;66.66
7774;BME280;3931;42.260;23.116;2022-12-24T12:57:15;95431.34;;;14.05;66.81
7774;BME280;3931;42.260;23.116;2022-12-24T12:59:48;95426.72;;;14.11;67.25
7774;BME280;3931;42.260;23.116;2022-12-24T13:02:29;95434.59;;;14.04;67.92
7774;BME280;3931;42.260;23.116;2022-12-24T13:05:22;95422.63;;;14.43;67.68
7774;BME280;3931;42.260;23.116;2022-12-24T13:08:25;95427.09;;;14.58;66.72
7774;BME280;3931;42.260;23.116;2022-12-24T13:11:23;95417.06;;;14.61;65.99
7774;BME280;3931;42.260;23.116;2022-12-24T13:14:03;95422.78;;;14.39;67.12
7774;BME280;3931;42.260;23.116;2022-12-24T13:20:10;95428.91;;;14.16;69.84
7774;BME280;3931;42.260;23.116;2022-12-24T13:22:47;95424.63;;;14.33;69.52
7774;BME280;3931;42.260;23.116;2022-12-24T13:25:20;95434.31;;;14.20;68.64
7774;BME280;3931;42.260;23.116;2022-12-24T13:27:47;95422.13;;;14.35;68.24
7774;BME280;3931;42.260;23.116;2022-12-24T13:30:33;95438.75;;;13.99;71.21
7774;BME280;3931;42.260;23.116;2022-12-24T13:33:00;95442.25;;;13.72;73.69
7774;BME280;3931;42.260;23.116;2022-12-24T13:35:34;95440.66;;;13.32;76.87